Time;durP1;ratioP1;P1;durP2;ratioP2;P2;SDS_P1;SDS_P2;PMS_P1;PMS_P2;Temp;Humidity;BMP_temperature;BMP_pressure;BME280_temperature;BME280_humidity;BME280_pressure;Samples;Min_cycle;Max_cycle;Signal;HPM_P1;HPM_P2
2022/09/14 00:01:17;;;;;;;3.30;2.27;;;19.40;98.00;;;;;;5014159;28;20466;-68
2022/09/14 00:03:46;;;;;;;3.57;2.60;;;19.30;98.00;;;;;;5014301;28;20492;-68
2022/09/14 00:06:16;;;;;;;2.80;2.20;;;19.40;98.00;;;;;;4996940;28;20466;-69
2022/09/14 00:08:44;;;;;;;3.13;2.30;;;19.40;98.00;;;;;;5014269;28;20475;-69
2022/09/14 00:11:12;;;;;;;3.33;2.00;;;19.40;98.00;;;;;;5013333;28;20570;-70
2022/09/14 00:13:41;;;;;;;3.47;2.17;;;19.70;98.00;;;;;;5013938;28;20462;-69
2022/09/14 00:16:12;;;;;;;2.90;2.13;;;19.90;98.00;;;;;;4996284;28;20455;-70
2022/09/14 00:18:40;;;;;;;2.90;2.10;;;20.00;98.00;;;;;;5013814;28;20479;-68
2022/09/14 00:21:09;;;;;;;3.27;2.20;;;19.90;98.00;;;;;;4996578;28;20451;-68
2022/09/14 00:23:40;;;;;;;2.40;1.93;;;19.80;98.00;;;;;;4996684;28;20459;-68
2022/09/14 00:26:09;;;;;;;3.30;2.13;;;19.70;98.00;;;;;;5013861;28;20455;-68
2022/09/14 00:28:38;;;;;;;3.50;2.00;;;19.70;98.00;;;;;;5013682;28;20455;-68
2022/09/14 00:31:06;;;;;;;2.90;2.20;;;19.70;98.00;;;;;;5013661;28;20496;-68
2022/09/14 00:33:34;;;;;;;3.60;2.20;;;19.70;98.00;;;;;;5013661;28;20530;-70
2022/09/14 00:36:09;;;;;;;3.33;2.30;;;19.60;98.00;;;;;;5013578;28;20467;-68
2022/09/14 00:38:38;;;;;;;5.03;2.47;;;19.50;98.00;;;;;;5013053;28;20513;-70
2022/09/14 00:41:08;;;;;;;3.93;2.20;;;19.40;98.00;;;;;;5013091;28;20490;-68
2022/09/14 00:43:58;;;;;;;3.10;2.10;;;19.50;98.00;;;;;;5013441;28;20462;-68
2022/09/14 00:46:26;;;;;;;2.97;2.20;;;19.60;98.00;;;;;;5013182;28;20466;-68
2022/09/14 00:48:55;;;;;;;2.30;1.97;;;19.70;98.00;;;;;;5013200;28;20518;-68
2022/09/14 00:51:23;;;;;;;3.60;2.33;;;19.70;98.00;;;;;;5013118;28;20941;-68
2022/09/14 00:53:59;;;;;;;3.00;2.03;;;19.70;98.00;;;;;;5013095;28;20455;-69
2022/09/14 00:56:26;;;;;;;3.40;2.40;;;19.70;98.00;;;;;;4995710;28;20963;-68
2022/09/14 00:58:57;;;;;;;2.43;2.17;;;19.60;98.00;;;;;;5012886;28;20451;-69
2022/09/14 01:01:25;;;;;;;2.73;1.97;;;19.60;98.00;;;;;;4996100;28;20460;-70
2022/09/14 01:03:53;;;;;;;3.43;2.00;;;19.60;98.00;;;;;;5012840;28;20530;-69
2022/09/14 01:06:29;;;;;;;2.30;1.80;;;19.70;98.00;;;;;;5013020;28;20464;-68
2022/09/14 01:09:09;;;;;;;2.43;1.70;;;19.50;98.00;;;;;;4980045;28;20499;-69
2022/09/14 01:11:52;;;;;;;2.47;1.83;;;19.50;98.00;;;;;;5012770;28;20823;-68
2022/09/14 01:14:26;;;;;;;2.47;1.97;;;19.40;98.00;;;;;;5012899;28;20464;-70
2022/09/14 01:17:00;;;;;;;2.87;2.20;;;19.40;98.00;;;;;;5012805;28;20455;-69
2022/09/14 01:19:48;;;;;;;2.87;2.40;;;19.40;98.00;;;;;;5012680;28;20463;-68
2022/09/14 01:22:29;;;;;;;2.87;2.00;;;19.40;98.00;;;;;;5012757;28;20455;-69
2022/09/14 01:25:11;;;;;;;3.97;1.83;;;19.50;98.00;;;;;;5012712;28;20464;-68
2022/09/14 01:27:42;;;;;;;2.30;2.00;;;19.40;98.00;;;;;;5012857;28;20455;-68
2022/09/14 01:30:12;;;;;;;2.40;1.87;;;19.40;98.00;;;;;;5012729;28;20459;-69
2022/09/14 01:32:45;;;;;;;2.70;2.20;;;19.40;98.00;;;;;;5012674;28;20470;-68
2022/09/14 01:35:19;;;;;;;2.47;2.03;;;19.40;98.00;;;;;;5012221;28;20469;-68
2022/09/14 01:37:51;;;;;;;4.27;2.10;;;19.40;98.00;;;;;;5012377;28;20455;-68
2022/09/14 01:40:25;;;;;;;2.53;2.10;;;19.60;98.00;;;;;;4995406;28;20462;-68
2022/09/14 01:42:57;;;;;;;3.00;2.30;;;19.50;98.00;;;;;;5012132;28;20467;-69
2022/09/14 01:45:27;;;;;;;3.50;2.07;;;19.30;98.00;;;;;;5012148;28;20463;-68
2022/09/14 01:47:55;;;;;;;5.20;2.40;;;19.30;98.00;;;;;;5012250;28;20550;-70
2022/09/14 01:50:30;;;;;;;2.13;1.90;;;19.30;98.00;;;;;;5011996;28;20530;-69
2022/09/14 01:53:00;;;;;;;3.00;2.20;;;19.40;98.00;;;;;;4994880;28;20463;-68
2022/09/14 01:55:33;;;;;;;3.33;2.20;;;19.30;98.00;;;;;;5012114;28;20460;-69
2022/09/14 01:58:05;;;;;;;3.70;2.20;;;19.20;98.00;;;;;;4994582;28;20953;-69
2022/09/14 02:00:33;;;;;;;2.30;2.00;;;19.20;98.00;;;;;;5012233;28;20463;-68
2022/09/14 02:03:07;;;;;;;3.00;2.20;;;19.10;98.00;;;;;;5012168;28;20458;-69
2022/09/14 02:05:37;;;;;;;2.23;2.00;;;19.20;98.00;;;;;;5012151;28;20563;-70
2022/09/14 02:08:05;;;;;;;2.93;2.20;;;19.10;98.00;;;;;;5011818;28;20830;-69
2022/09/14 02:10:33;;;;;;;3.20;2.00;;;19.10;98.00;;;;;;5011967;28;20494;-68
2022/09/14 02:13:02;;;;;;;2.67;2.20;;;18.90;98.00;;;;;;5012045;28;20460;-68
2022/09/14 02:15:30;;;;;;;3.63;2.33;;;19.00;98.00;;;;;;4978553;28;20487;-69
2022/09/14 02:17:58;;;;;;;2.40;1.90;;;19.10;98.00;;;;;;5011990;28;20467;-69
2022/09/14 02:20:31;;;;;;;3.53;2.37;;;19.10;98.00;;;;;;5011973;28;20469;-69
2022/09/14 02:22:58;;;;;;;4.97;2.80;;;19.00;98.00;;;;;;4998266;28;20524;-69
2022/09/14 02:25:25;;;;;;;3.20;2.13;;;18.90;98.00;;;;;;5015959;28;20455;-70
2022/09/14 02:27:52;;;;;;;3.70;2.53;;;18.90;98.00;;;;;;5016398;28;20456;-69
2022/09/14 02:30:22;;;;;;;3.07;2.30;;;19.00;98.00;;;;;;4998440;28;20964;-70
2022/09/14 02:33:02;;;;;;;5.50;2.20;;;19.00;98.00;;;;;;5015647;28;20459;-68
2022/09/14 02:35:41;;;;;;;2.97;2.30;;;19.10;98.00;;;;;;5015546;28;20466;-69
2022/09/14 02:38:14;;;;;;;4.10;2.63;;;19.10;98.00;;;;;;5015562;28;20486;-69
2022/09/14 02:40:48;;;;;;;3.33;2.80;;;19.30;98.00;;;;;;5015530;28;20459;-69
2022/09/14 02:43:28;;;;;;;6.73;2.73;;;19.30;98.00;;;;;;4998232;28;20470;-68
2022/09/14 02:46:04;;;;;;;4.70;2.43;;;19.00;98.00;;;;;;5015402;28;20474;-69
2022/09/14 02:48:40;;;;;;;3.97;2.43;;;19.00;98.00;;;;;;5015432;28;20505;-69
2022/09/14 02:51:19;;;;;;;2.93;2.47;;;18.90;98.00;;;;;;4997580;28;20492;-68
2022/09/14 02:53:51;;;;;;;2.37;2.20;;;19.00;98.00;;;;;;5015471;28;20459;-68
2022/09/14 02:56:20;;;;;;;4.60;2.70;;;19.10;98.00;;;;;;4982302;28;20466;-69
2022/09/14 02:58:47;;;;;;;5.43;2.90;;;19.20;98.00;;;;;;5015266;28;20795;-69
2022/09/14 03:01:20;;;;;;;4.37;2.20;;;19.00;98.00;;;;;;4997537;28;20459;-68
2022/09/14 03:03:48;;;;;;;6.03;2.50;;;19.00;98.00;;;;;;5015310;28;20533;-69
2022/09/14 03:06:15;;;;;;;4.27;2.50;;;19.00;98.00;;;;;;5014980;28;20535;-69
2022/09/14 03:08:42;;;;;;;2.90;2.30;;;19.10;98.00;;;;;;5015007;28;20467;-69
2022/09/14 03:11:09;;;;;;;10.53;2.90;;;19.10;98.00;;;;;;5015079;28;20834;-69
2022/09/14 03:13:37;;;;;;;3.80;2.37;;;19.10;98.00;;;;;;5015258;28;20525;-69
2022/09/14 03:16:07;;;;;;;3.10;2.30;;;19.20;98.00;;;;;;4998062;28;20467;-68
2022/09/14 03:18:37;;;;;;;4.00;2.67;;;19.20;98.00;;;;;;4997375;28;20463;-68
2022/09/14 03:21:06;;;;;;;5.03;2.70;;;19.20;98.00;;;;;;5015085;28;20821;-68
2022/09/14 03:23:36;;;;;;;4.63;2.43;;;19.00;98.00;;;;;;5015139;28;20550;-69
2022/09/14 03:26:08;;;;;;;4.93;2.70;;;18.80;98.00;;;;;;5015243;28;20483;-69
2022/09/14 03:28:35;;;;;;;3.90;2.63;;;18.90;98.00;;;;;;5015288;28;20822;-70
2022/09/14 03:31:03;;;;;;;3.40;2.60;;;18.90;98.00;;;;;;4997597;28;20974;-68
2022/09/14 03:33:31;;;;;;;3.77;2.37;;;18.80;98.00;;;;;;5014089;28;20478;-68
2022/09/14 03:36:00;;;;;;;3.30;2.20;;;18.80;98.00;;;;;;5014439;28;20467;-68
2022/09/14 03:38:28;;;;;;;3.83;2.10;;;18.70;98.00;;;;;;5014417;28;20981;-68
2022/09/14 03:40:56;;;;;;;3.50;2.40;;;18.70;98.00;;;;;;5014483;28;20460;-70
2022/09/14 03:43:25;;;;;;;2.90;2.23;;;18.80;98.00;;;;;;5014169;28;20963;-69
2022/09/14 03:45:52;;;;;;;4.40;3.40;;;18.80;98.00;;;;;;4997520;28;20444;-68
2022/09/14 03:48:19;;;;;;;3.17;2.30;;;18.90;98.00;;;;;;5014204;28;20458;-68
2022/09/14 03:50:50;;;;;;;4.37;2.63;;;18.90;98.00;;;;;;5014188;28;20459;-69
2022/09/14 03:53:18;;;;;;;4.27;2.63;;;18.90;98.00;;;;;;5014089;28;20858;-69
2022/09/14 03:55:46;;;;;;;5.40;2.53;;;18.90;98.00;;;;;;5014065;28;20467;-68
2022/09/14 03:58:13;;;;;;;3.93;2.50;;;18.80;98.00;;;;;;4996941;28;20471;-68
2022/09/14 04:00:40;;;;;;;4.93;2.80;;;18.70;98.00;;;;;;4996721;28;20456;-68
2022/09/14 04:03:08;;;;;;;5.57;3.40;;;18.70;98.00;;;;;;5013641;28;20491;-69
2022/09/14 04:05:35;;;;;;;4.33;3.00;;;18.60;98.00;;;;;;5013991;28;20831;-68
2022/09/14 04:08:04;;;;;;;4.83;2.53;;;18.70;98.00;;;;;;4996493;28;20467;-69
2022/09/14 04:10:32;;;;;;;3.90;2.47;;;18.90;98.00;;;;;;5014109;28;20459;-70
2022/09/14 04:13:00;;;;;;;6.00;3.00;;;19.10;98.00;;;;;;5013809;28;20488;-69
2022/09/14 04:15:28;;;;;;;4.97;2.77;;;19.20;98.00;;;;;;5013949;28;20462;-69
2022/09/14 04:17:55;;;;;;;7.87;2.83;;;19.00;98.00;;;;;;5013860;28;20970;-69
2022/09/14 04:20:22;;;;;;;2.50;2.17;;;18.80;98.00;;;;;;5013947;28;20478;-68
2022/09/14 04:22:49;;;;;;;3.33;2.53;;;18.80;98.00;;;;;;5013797;28;20454;-70
2022/09/14 04:25:16;;;;;;;4.70;2.20;;;18.70;98.00;;;;;;4996635;28;20527;-68
2022/09/14 04:27:45;;;;;;;3.37;2.23;;;18.70;98.00;;;;;;4996141;28;21016;-69
2022/09/14 04:30:15;;;;;;;4.27;2.27;;;18.80;98.00;;;;;;5013914;28;20458;-68
2022/09/14 04:32:43;;;;;;;4.10;2.73;;;19.00;98.00;;;;;;5013448;28;20490;-68
2022/09/14 04:35:10;;;;;;;4.53;2.77;;;19.00;98.00;;;;;;5013439;28;20448;-68
2022/09/14 04:37:37;;;;;;;5.87;3.53;;;18.80;98.00;;;;;;5013443;28;20489;-68
2022/09/14 04:40:05;;;;;;;4.10;2.60;;;18.80;98.00;;;;;;5013689;28;20493;-68
2022/09/14 04:42:32;;;;;;;3.37;2.20;;;18.70;98.00;;;;;;5013185;28;20460;-68
2022/09/14 04:45:01;;;;;;;4.03;2.50;;;18.70;98.00;;;;;;5012526;28;20890;-69
2022/09/14 04:47:30;;;;;;;3.43;2.30;;;18.70;98.00;;;;;;5013395;28;20455;-70
2022/09/14 04:49:57;;;;;;;3.83;2.70;;;18.70;98.00;;;;;;5013148;28;20491;-68
2022/09/14 04:52:24;;;;;;;4.17;2.67;;;18.80;98.00;;;;;;4995618;28;20479;-70
2022/09/14 04:54:51;;;;;;;3.63;2.30;;;18.90;98.00;;;;;;5013127;28;20887;-69
2022/09/14 04:57:18;;;;;;;5.23;2.50;;;18.90;98.00;;;;;;4979640;28;20464;-69
2022/09/14 04:59:45;;;;;;;4.43;2.80;;;18.90;98.00;;;;;;4996015;28;20799;-69
2022/09/14 05:02:14;;;;;;;4.90;3.00;;;19.00;98.00;;;;;;5012832;28;20806;-70
2022/09/14 05:04:42;;;;;;;4.70;3.00;;;19.10;98.00;;;;;;5013021;28;20452;-69
2022/09/14 05:07:09;;;;;;;4.67;2.80;;;19.10;98.00;;;;;;5012765;28;20496;-68
2022/09/14 05:09:38;;;;;;;6.03;3.20;;;18.90;98.00;;;;;;5012874;28;20961;-69
2022/09/14 05:12:06;;;;;;;3.60;2.37;;;18.80;98.00;;;;;;4995344;28;20585;-68
2022/09/14 05:14:33;;;;;;;3.30;2.03;;;18.80;98.00;;;;;;5011682;28;20473;-69
2022/09/14 05:17:01;;;;;;;3.70;2.50;;;18.80;98.00;;;;;;5012839;28;20459;-68
2022/09/14 05:19:30;;;;;;;4.80;2.93;;;18.90;98.00;;;;;;5012525;28;20456;-68
2022/09/14 05:21:57;;;;;;;5.20;2.77;;;19.00;98.00;;;;;;5012776;28;20459;-69
2022/09/14 05:24:24;;;;;;;3.07;2.07;;;18.80;98.00;;;;;;5012527;28;20464;-68
2022/09/14 05:26:53;;;;;;;5.33;3.03;;;18.80;98.00;;;;;;5012705;28;20459;-69
2022/09/14 05:29:20;;;;;;;4.93;3.27;;;18.80;98.00;;;;;;4995320;28;20495;-68
2022/09/14 05:31:47;;;;;;;4.50;2.83;;;18.90;98.00;;;;;;5013070;28;20865;-68
2022/09/14 05:34:15;;;;;;;7.03;3.30;;;19.00;98.00;;;;;;5012538;28;20487;-68
2022/09/14 05:36:43;;;;;;;5.87;3.20;;;19.00;98.00;;;;;;5012280;28;20466;-69
2022/09/14 05:39:11;;;;;;;4.07;2.60;;;19.10;98.00;;;;;;5012162;28;20463;-68
2022/09/14 05:41:38;;;;;;;3.67;2.43;;;19.20;98.00;;;;;;4994685;28;20455;-71
2022/09/14 05:44:06;;;;;;;3.70;2.77;;;19.30;98.00;;;;;;5011888;28;20461;-68
2022/09/14 05:46:34;;;;;;;7.40;3.10;;;19.30;98.00;;;;;;5011862;28;20462;-69
2022/09/14 05:49:02;;;;;;;3.67;2.70;;;19.30;98.00;;;;;;5011863;28;20456;-73
2022/09/14 05:51:29;;;;;;;3.90;2.90;;;19.20;98.00;;;;;;5011695;28;20539;-73
2022/09/14 05:53:59;;;;;;;3.90;2.57;;;19.30;98.00;;;;;;5011817;28;20482;-74
2022/09/14 05:56:29;;;;;;;4.13;3.13;;;19.40;98.00;;;;;;5012026;28;20451;-74
2022/09/14 05:58:57;;;;;;;3.17;2.40;;;19.40;98.00;;;;;;5012210;28;20815;-74
2022/09/14 06:01:25;;;;;;;5.10;3.60;;;19.40;98.00;;;;;;5012014;28;20934;-72
2022/09/14 06:03:54;;;;;;;4.90;2.97;;;19.30;98.00;;;;;;5012101;28;20834;-73
2022/09/14 06:06:21;;;;;;;4.70;3.00;;;19.30;98.00;;;;;;5012087;28;20865;-71
2022/09/14 06:08:51;;;;;;;4.03;3.10;;;19.20;98.00;;;;;;5011701;28;20478;-73
2022/09/14 06:11:22;;;;;;;4.67;2.90;;;19.20;98.00;;;;;;5012001;28;20463;-72
2022/09/14 06:13:49;;;;;;;4.33;2.50;;;19.20;98.00;;;;;;5011986;28;20598;-72
2022/09/14 06:16:18;;;;;;;3.17;2.60;;;19.30;98.00;;;;;;5012009;28;20542;-72
2022/09/14 06:18:46;;;;;;;2.97;2.27;;;19.30;98.00;;;;;;5011941;28;20510;-71
2022/09/14 06:21:16;;;;;;;2.30;2.10;;;19.40;98.00;;;;;;5011895;28;20470;-72
2022/09/14 06:23:43;;;;;;;4.63;3.17;;;19.40;98.00;;;;;;5011770;28;20558;-72
2022/09/14 06:26:11;;;;;;;3.77;2.40;;;19.50;98.00;;;;;;5012127;28;20487;-72
2022/09/14 06:28:41;;;;;;;3.23;2.33;;;19.50;98.00;;;;;;5012020;28;20491;-72
2022/09/14 06:31:08;;;;;;;3.30;2.40;;;19.60;98.00;;;;;;5012402;28;20455;-73
2022/09/14 06:33:36;;;;;;;3.03;2.30;;;19.80;98.00;;;;;;5011607;28;20801;-74
2022/09/14 06:36:06;;;;;;;6.10;2.90;;;19.90;98.00;;;;;;5011859;28;20835;-72
2022/09/14 06:38:33;;;;;;;3.10;2.30;;;19.90;98.00;;;;;;5011637;28;20459;-72
2022/09/14 06:41:03;;;;;;;4.33;3.00;;;20.00;98.00;;;;;;5011600;28;20451;-73
2022/09/14 06:43:33;;;;;;;5.40;2.90;;;20.20;98.00;;;;;;5011190;28;20447;-70
2022/09/14 06:46:04;;;;;;;3.73;2.60;;;20.20;98.00;;;;;;5011377;28;20474;-70
2022/09/14 06:48:34;;;;;;;5.27;2.90;;;20.30;98.00;;;;;;5011619;28;20456;-72
2022/09/14 06:51:13;;;;;;;4.20;2.90;;;20.50;98.00;;;;;;5011416;28;20490;-73
2022/09/14 07:07:02;;;;;;;4.60;2.70;;;20.60;98.00;;;;;;5017731;28;20448;-91
2022/09/14 07:09:33;;;;;;;3.90;2.33;;;20.60;98.00;;;;;;5027474;28;20461;-93
2022/09/14 07:12:12;;;;;;;6.07;2.80;;;20.60;98.00;;;;;;5028177;28;20470;-93
2022/09/14 07:14:49;;;;;;;5.60;3.13;;;20.80;98.00;;;;;;5019898;28;20463;-92
2022/09/14 07:17:29;;;;;;;3.60;2.40;;;20.80;98.00;;;;;;5019982;28;20465;-92
2022/09/14 07:19:57;;;;;;;3.17;2.47;;;20.80;98.00;;;;;;5022697;28;20487;-92
2022/09/14 07:22:32;;;;;;;3.50;2.60;;;20.80;98.00;;;;;;5013797;28;20980;-90
2022/09/14 07:25:07;;;;;;;3.67;2.43;;;20.90;98.00;;;;;;5015542;28;20455;-92
2022/09/14 07:27:52;;;;;;;3.57;2.40;;;20.90;98.00;;;;;;5016371;28;20486;-92
2022/09/14 07:30:23;;;;;;;2.90;2.30;;;21.00;98.00;;;;;;5016106;28;20831;-92
2022/09/14 07:32:50;;;;;;;3.70;2.40;;;21.00;98.00;;;;;;5014411;28;20583;-92
2022/09/14 07:35:20;;;;;;;3.53;2.13;;;21.00;98.00;;;;;;5014842;28;20491;-91
2022/09/14 07:37:51;;;;;;;3.70;2.20;;;21.10;98.00;;;;;;5014566;28;20471;-92
2022/09/14 07:40:18;;;;;;;1.97;1.90;;;21.20;98.00;;;;;;5026930;28;20483;-96
2022/09/14 07:42:51;;;;;;;3.93;2.73;;;21.20;98.00;;;;;;5029949;28;20554;-93
2022/09/14 07:48:56;;;;;;;3.60;2.70;;;21.40;98.00;;;;;;4998317;28;20550;-90
2022/09/14 07:51:23;;;;;;;3.43;2.03;;;21.40;98.00;;;;;;5013165;28;20456;-90
2022/09/14 07:53:52;;;;;;;5.10;2.40;;;21.60;98.00;;;;;;5015665;28;20491;-91
2022/09/14 07:56:20;;;;;;;3.27;2.30;;;21.60;98.00;;;;;;5015855;28;20467;-92
2022/09/14 07:58:48;;;;;;;3.60;2.67;;;21.70;98.00;;;;;;5012741;28;20467;-91
2022/09/14 08:01:17;;;;;;;3.87;2.30;;;21.90;98.00;;;;;;5014367;28;20467;-92
2022/09/14 08:06:33;;;;;;;2.70;2.10;;;22.10;98.00;;;;;;5011556;28;20479;-90
2022/09/14 08:09:07;;;;;;;4.23;2.70;;;22.20;98.00;;;;;;5011755;28;20454;-92
2022/09/14 08:18:05;;;;;;;3.90;2.60;;;22.50;98.00;;;;;;4976158;28;20455;-92
2022/09/14 08:24:51;;;;;;;3.67;2.67;;;22.70;98.00;;;;;;4968242;28;20582;-93
2022/09/14 08:28:15;;;;;;;4.77;2.60;;;22.70;98.00;;;;;;4994878;28;20469;-92
2022/09/14 08:31:16;;;;;;;3.20;2.20;;;22.70;98.00;;;;;;5005657;28;20873;-91
2022/09/14 08:37:15;;;;;;;4.47;2.60;;;22.70;98.00;;;;;;5010640;28;20575;-92
2022/09/14 08:39:43;;;;;;;3.50;2.63;;;22.70;98.00;;;;;;5012028;28;20482;-92
2022/09/14 08:50:52;;;;;;;3.00;2.40;;;22.80;98.00;;;;;;4948111;28;20501;-92
2022/09/14 08:57:33;;;;;;;2.40;2.00;;;22.90;98.00;;;;;;4813669;29;20493;-92
2022/09/14 09:00:23;;;;;;;2.43;2.30;;;22.80;98.00;;;;;;4861473;29;20469;-93
2022/09/14 09:03:24;;;;;;;3.97;2.30;;;22.80;98.00;;;;;;4918234;23;20505;-66
2022/09/14 09:05:58;;;;;;;2.90;2.20;;;22.90;98.00;;;;;;5009616;28;20454;-66
2022/09/14 09:08:36;;;;;;;4.07;2.63;;;23.00;98.00;;;;;;5019954;28;20457;-65
2022/09/14 09:11:06;;;;;;;4.10;2.50;;;23.00;98.00;;;;;;5002247;28;20470;-66
2022/09/14 09:13:37;;;;;;;6.90;2.70;;;23.10;98.00;;;;;;5010652;28;20499;-67
2022/09/14 09:16:09;;;;;;;2.97;2.30;;;23.10;98.00;;;;;;4994344;28;20463;-68
2022/09/14 09:18:41;;;;;;;2.40;2.13;;;23.20;98.00;;;;;;5010939;28;20464;-67
2022/09/14 09:21:14;;;;;;;4.80;2.67;;;23.30;98.00;;;;;;5016232;28;20465;-67
2022/09/14 09:23:43;;;;;;;3.80;2.60;;;23.50;98.00;;;;;;5019388;28;20486;-66
2022/09/14 09:26:16;;;;;;;3.80;2.60;;;23.60;98.00;;;;;;5003113;28;20501;-65
2022/09/14 09:28:48;;;;;;;3.00;2.30;;;23.80;98.00;;;;;;5025866;28;20542;-66
2022/09/14 09:31:16;;;;;;;6.13;2.90;;;24.10;98.00;;;;;;5010603;28;20467;-66
2022/09/14 09:33:45;;;;;;;4.63;2.40;;;24.40;98.00;;;;;;5013384;28;20487;-66
2022/09/14 09:36:15;;;;;;;2.90;2.30;;;24.50;98.00;;;;;;5019468;28;20463;-66
2022/09/14 09:38:42;;;;;;;3.20;2.30;;;24.70;98.00;;;;;;5026957;28;20460;-66
2022/09/14 09:41:19;;;;;;;2.67;2.30;;;24.90;98.00;;;;;;5016762;28;20723;-67
2022/09/14 09:43:59;;;;;;;2.77;2.17;;;25.00;98.00;;;;;;5022199;28;20600;-66
2022/09/14 09:46:27;;;;;;;2.60;2.10;;;25.30;98.00;;;;;;5014472;28;20517;-66
2022/09/14 09:48:54;;;;;;;3.90;2.57;;;25.50;98.00;;;;;;5015076;28;20455;-66
2022/09/14 09:51:29;;;;;;;2.53;2.10;;;25.40;98.00;;;;;;5020408;28;20451;-66
2022/09/14 09:54:08;;;;;;;3.80;2.30;;;25.30;98.00;;;;;;5010217;28;20860;-66
2022/09/14 09:56:39;;;;;;;4.13;2.77;;;25.10;98.00;;;;;;5026069;28;20466;-66
2022/09/14 09:59:22;;;;;;;4.13;3.00;;;24.90;98.00;;;;;;5027592;28;20544;-66
2022/09/14 10:01:51;;;;;;;3.30;2.60;;;24.90;98.00;;;;;;5018653;28;20470;-68
2022/09/14 10:04:21;;;;;;;3.40;2.30;;;25.00;98.00;;;;;;5009637;28;20844;-67
2022/09/14 10:06:53;;;;;;;3.83;2.33;;;25.00;98.00;;;;;;5027847;28;20940;-68
2022/09/14 10:09:22;;;;;;;2.10;1.97;;;25.30;98.00;;;;;;5010989;28;20534;-67
2022/09/14 10:11:58;;;;;;;6.90;2.30;;;25.50;98.00;;;;;;5018837;28;20536;-66
2022/09/14 10:14:30;;;;;;;3.37;2.43;;;25.90;98.00;;;;;;5030991;28;20574;-67
2022/09/14 10:17:15;;;;;;;3.77;2.93;;;26.10;98.00;;;;;;5031103;28;20554;-66
2022/09/14 10:19:47;;;;;;;2.73;2.30;;;26.40;98.00;;;;;;5030685;28;20924;-67
2022/09/14 10:22:26;;;;;;;4.07;2.50;;;26.70;98.00;;;;;;5031017;28;20450;-66
2022/09/14 10:24:56;;;;;;;3.97;2.53;;;27.00;98.00;;;;;;5030984;28;20887;-66
2022/09/14 10:27:41;;;;;;;5.20;1.90;;;27.20;98.00;;;;;;5031262;28;20819;-67
2022/09/14 10:30:17;;;;;;;2.90;2.20;;;27.40;98.00;;;;;;5031089;28;20458;-66
2022/09/14 10:32:54;;;;;;;3.10;2.20;;;27.60;98.00;;;;;;5031357;28;20485;-66
2022/09/14 10:35:25;;;;;;;3.30;2.47;;;27.60;98.00;;;;;;5031154;28;20478;-66
2022/09/14 10:38:04;;;;;;;3.23;2.33;;;27.50;98.00;;;;;;5030729;28;20965;-66
2022/09/14 10:40:37;;;;;;;3.37;2.40;;;27.50;98.00;;;;;;5031279;28;20463;-66
2022/09/14 10:43:13;;;;;;;3.90;2.70;;;27.50;98.00;;;;;;5032071;28;20987;-66
2022/09/14 10:45:48;;;;;;;2.37;2.00;;;27.20;98.00;;;;;;5034917;28;20844;-66
2022/09/14 10:48:52;;;;;;;3.60;2.40;;;27.00;98.00;;;;;;5035013;28;20458;-66
2022/09/14 10:51:30;;;;;;;3.57;2.80;;;26.90;98.00;;;;;;5034868;28;20713;-67
2022/09/14 10:54:08;;;;;;;3.30;2.23;;;27.00;98.00;;;;;;5034512;28;20519;-67
2022/09/14 10:56:52;;;;;;;3.03;2.40;;;26.90;98.00;;;;;;5034679;28;20480;-67
2022/09/14 10:59:30;;;;;;;4.93;3.20;;;26.90;98.00;;;;;;5034309;28;20465;-66
2022/09/14 11:02:28;;;;;;;4.50;2.80;;;26.90;98.00;;;;;;5034702;28;20936;-66
2022/09/14 11:05:07;;;;;;;2.50;2.10;;;27.00;98.00;;;;;;5034295;28;20473;-67
2022/09/14 11:07:41;;;;;;;4.20;2.30;;;27.00;98.00;;;;;;5035502;28;20504;-66
2022/09/14 11:10:19;;;;;;;2.90;2.20;;;26.90;98.00;;;;;;5035349;28;20545;-66
2022/09/14 11:12:54;;;;;;;3.60;2.40;;;26.80;98.00;;;;;;5035252;28;20465;-66
2022/09/14 11:15:28;;;;;;;3.10;2.40;;;26.90;98.00;;;;;;5034926;28;20913;-66
2022/09/14 11:18:12;;;;;;;2.90;2.23;;;26.90;98.00;;;;;;5034604;28;20545;-66
2022/09/14 11:20:45;;;;;;;2.80;2.27;;;27.10;98.00;;;;;;5034622;28;20458;-66
2022/09/14 11:23:26;;;;;;;4.03;2.70;;;27.30;98.00;;;;;;5034709;28;20520;-66
2022/09/14 11:25:57;;;;;;;2.90;2.30;;;27.50;98.00;;;;;;5017158;28;20537;-67
2022/09/14 11:28:29;;;;;;;2.63;2.33;;;27.90;98.00;;;;;;5034274;28;20458;-66
2022/09/14 11:31:02;;;;;;;3.10;2.20;;;28.30;98.00;;;;;;5034822;28;20804;-66
2022/09/14 11:33:36;;;;;;;2.90;2.60;;;28.40;98.00;;;;;;5034596;28;20481;-66
2022/09/14 11:36:08;;;;;;;3.30;2.50;;;28.50;98.00;;;;;;5034699;28;20454;-67
2022/09/14 11:38:41;;;;;;;3.40;2.10;;;28.50;98.00;;;;;;5033496;28;21045;-67
2022/09/14 11:41:17;;;;;;;3.20;2.40;;;28.50;98.00;;;;;;5033210;28;20516;-66
2022/09/14 11:43:48;;;;;;;4.57;2.50;;;28.70;98.00;;;;;;5034391;28;20447;-66
2022/09/14 11:46:21;;;;;;;2.70;2.17;;;28.80;98.00;;;;;;5034227;28;20458;-67
2022/09/14 11:48:54;;;;;;;3.57;2.50;;;28.80;98.00;;;;;;5034125;28;20466;-66
2022/09/14 11:51:24;;;;;;;4.43;2.60;;;28.90;98.00;;;;;;5033414;28;20936;-66
2022/09/14 11:53:52;;;;;;;5.53;2.67;;;29.10;98.00;;;;;;5033232;28;20627;-66
2022/09/14 11:56:25;;;;;;;7.53;2.33;;;29.40;98.00;;;;;;5033752;28;20458;-66
2022/09/14 11:58:54;;;;;;;2.90;2.20;;;29.80;96.10;;;;;;5033355;28;20796;-66
2022/09/14 12:01:30;;;;;;;2.30;2.20;;;29.70;96.40;;;;;;5033259;28;20474;-66
2022/09/14 12:04:10;;;;;;;3.07;2.00;;;29.70;98.00;;;;;;5033277;28;20979;-66
2022/09/14 12:06:55;;;;;;;2.43;2.10;;;29.20;96.60;;;;;;5033348;28;20462;-67
2022/09/14 12:09:50;;;;;;;3.47;2.70;;;28.70;97.20;;;;;;5033401;28;20459;-66
2022/09/14 12:12:38;;;;;;;3.10;2.20;;;28.30;98.00;;;;;;5033185;28;20458;-66
2022/09/14 12:15:34;;;;;;;2.50;2.33;;;28.00;98.00;;;;;;5032954;28;20919;-66
2022/09/14 12:18:22;;;;;;;2.60;2.07;;;27.70;98.00;;;;;;4987062;28;20830;-66
2022/09/14 12:21:00;;;;;;;3.23;2.30;;;27.40;98.00;;;;;;5032872;28;20463;-67
2022/09/14 12:23:31;;;;;;;2.23;2.00;;;27.50;98.00;;;;;;5016845;28;20526;-66
2022/09/14 12:26:35;;;;;;;5.30;2.37;;;27.40;98.00;;;;;;5033098;28;20477;-66
2022/09/14 12:29:30;;;;;;;5.10;1.90;;;27.20;98.00;;;;;;5032836;28;20504;-67
2022/09/14 12:32:02;;;;;;;6.70;2.67;;;27.10;98.00;;;;;;5032916;28;21145;-66
2022/09/14 12:34:32;;;;;;;2.50;2.03;;;27.20;98.00;;;;;;5032812;28;20818;-67
2022/09/14 12:37:28;;;;;;;10.73;2.20;;;27.10;98.00;;;;;;5032803;28;20458;-67
2022/09/14 12:40:33;;;;;;;5.03;2.07;;;27.10;98.00;;;;;;5032888;28;20462;-67
2022/09/14 12:43:36;;;;;;;2.67;2.17;;;27.00;98.00;;;;;;5032730;28;20541;-67
2022/09/14 12:46:06;;;;;;;3.33;2.20;;;27.00;98.00;;;;;;4996142;28;20465;-67
2022/09/14 12:48:57;;;;;;;2.57;1.77;;;26.80;98.00;;;;;;5032731;28;20459;-67
2022/09/14 12:51:34;;;;;;;3.00;2.00;;;26.70;98.00;;;;;;5032733;28;20535;-66
2022/09/14 12:54:10;;;;;;;3.03;2.13;;;26.60;98.00;;;;;;5031499;28;21029;-66
2022/09/14 12:56:45;;;;;;;3.03;2.10;;;26.40;98.00;;;;;;5032341;28;20466;-66
2022/09/14 12:59:17;;;;;;;3.47;2.47;;;26.20;98.00;;;;;;5032160;28;20524;-66
2022/09/14 13:01:53;;;;;;;2.60;2.10;;;26.20;98.00;;;;;;5032225;28;20516;-66
2022/09/14 13:04:25;;;;;;;2.67;2.00;;;26.20;98.00;;;;;;5032003;28;20839;-66
2022/09/14 13:06:54;;;;;;;2.90;2.20;;;26.10;98.00;;;;;;5031246;28;20463;-66
2022/09/14 13:09:24;;;;;;;4.60;2.00;;;26.10;98.00;;;;;;5031966;28;20458;-66
2022/09/14 13:11:57;;;;;;;2.63;2.17;;;26.10;98.00;;;;;;5014834;28;20546;-66
2022/09/14 13:14:29;;;;;;;4.13;1.80;;;26.00;98.00;;;;;;5032130;28;20840;-66
2022/09/14 13:17:02;;;;;;;2.40;1.80;;;25.90;98.00;;;;;;5031972;28;20465;-66
2022/09/14 13:19:30;;;;;;;2.60;1.90;;;25.80;98.00;;;;;;5014742;28;20957;-66
2022/09/14 13:22:00;;;;;;;2.80;2.10;;;25.70;98.00;;;;;;5031862;28;20455;-65
2022/09/14 13:24:31;;;;;;;2.30;1.80;;;25.50;98.00;;;;;;5031837;28;20458;-66
2022/09/14 13:27:01;;;;;;;2.60;2.10;;;25.30;98.00;;;;;;5031758;28;20467;-66
2022/09/14 13:29:28;;;;;;;3.63;2.70;;;25.20;98.00;;;;;;5031897;28;20932;-66
2022/09/14 13:31:58;;;;;;;2.80;2.07;;;25.00;98.00;;;;;;5031713;28;20450;-66
2022/09/14 13:34:28;;;;;;;2.53;1.90;;;24.90;98.00;;;;;;5031765;28;20486;-67
2022/09/14 13:36:56;;;;;;;2.50;2.00;;;24.80;98.00;;;;;;5031882;28;20516;-66
2022/09/14 13:39:27;;;;;;;2.40;1.80;;;24.70;98.00;;;;;;5031854;28;20474;-69
2022/09/14 13:41:55;;;;;;;3.23;2.20;;;24.50;98.00;;;;;;5031644;28;20470;-69
2022/09/14 13:44:27;;;;;;;3.07;2.30;;;24.70;98.00;;;;;;5031443;28;20498;-69
2022/09/14 13:46:58;;;;;;;2.23;1.80;;;24.60;98.00;;;;;;5031015;28;20505;-66
2022/09/14 13:49:25;;;;;;;3.50;2.00;;;24.70;98.00;;;;;;5013731;28;20454;-67
2022/09/14 13:51:53;;;;;;;2.87;2.23;;;24.50;98.00;;;;;;5032150;28;20458;-69
2022/09/14 13:54:28;;;;;;;2.20;1.70;;;24.30;98.00;;;;;;5031789;28;20528;-68
2022/09/14 13:57:15;;;;;;;2.53;1.93;;;24.20;98.00;;;;;;5031913;28;20512;-68
2022/09/14 14:00:18;;;;;;;2.70;1.83;;;24.00;98.00;;;;;;5031877;28;20461;-66
2022/09/14 14:02:51;;;;;;;1.93;1.70;;;23.80;98.00;;;;;;5031657;28;20473;-69